createdAt,value
2023-11-18T00:13:35.324Z,43.6
2023-11-18T00:33:35.326Z,43.59
2023-11-18T00:53:35.290Z,43.58
2023-11-18T01:13:35.373Z,43.58
2023-11-18T02:33:35.488Z,43.56
2023-11-18T02:53:35.329Z,43.55
2023-11-18T03:13:35.356Z,43.53
2023-11-18T03:33:35.350Z,43.51
2023-11-18T03:53:42.352Z,43.5
2023-11-18T04:13:35.398Z,43.5
2023-11-18T04:33:35.340Z,43.48
2023-11-18T04:53:35.432Z,43.47
2023-11-18T05:13:35.501Z,43.46
2023-11-18T05:33:35.419Z,43.46
2023-11-18T05:53:35.355Z,43.45
2023-11-18T06:13:35.380Z,43.45
2023-11-18T06:33:35.388Z,43.44
2023-11-18T06:53:35.364Z,43.43
2023-11-18T07:13:35.345Z,43.45
2023-11-18T07:33:35.374Z,43.41
2023-11-18T07:53:35.348Z,43.44
2023-11-18T08:33:35.412Z,43.4
2023-11-18T09:13:35.339Z,43.41
2023-11-18T09:33:35.585Z,43.39
2023-11-18T09:53:35.330Z,43.38
2023-11-18T10:13:35.325Z,43.39
2023-11-18T10:33:35.324Z,43.37
2023-11-18T10:53:35.029Z,43.38
2023-11-18T11:13:35.285Z,43.36
2023-11-18T11:33:35.377Z,43.36
2023-11-18T11:53:35.278Z,43.35
2023-11-18T12:13:35.245Z,43.38
2023-11-18T12:33:35.287Z,43.33
2023-11-18T12:53:35.232Z,43.33
2023-11-18T13:13:35.206Z,43.32
2023-11-18T13:33:35.195Z,43.3
2023-11-18T13:53:35.201Z,43.3
2023-11-18T14:33:35.159Z,43.33
2023-11-18T14:53:35.187Z,43.34
2023-11-18T15:33:35.116Z,43.38
2023-11-18T15:53:35.151Z,43.37
2023-11-18T16:13:35.082Z,43.4
2023-11-18T16:33:35.126Z,43.31
2023-11-18T16:53:35.068Z,43.39
2023-11-18T17:13:35.062Z,43.51
2023-11-18T17:33:35.066Z,43.77
2023-11-18T17:53:35.057Z,44.03
2023-11-18T18:13:35.002Z,44.21
2023-11-18T18:53:35.005Z,44.43
2023-11-18T19:13:34.974Z,44.49
2023-11-18T19:33:34.966Z,44.55
2023-11-18T19:53:34.983Z,44.6
2023-11-18T20:13:34.924Z,44.64
2023-11-18T20:53:34.974Z,44.69
2023-11-18T21:13:34.884Z,44.67
2023-11-18T21:33:34.873Z,44.66
2023-11-18T21:53:34.869Z,44.66
2023-11-18T22:13:34.831Z,44.66
2023-11-18T22:33:34.868Z,44.66
2023-11-18T22:53:34.902Z,44.67
2023-11-18T23:13:34.782Z,44.67
2023-11-18T23:33:34.759Z,44.67
2023-11-18T23:53:34.770Z,44.68
